Time;durP1;ratioP1;P1;durP2;ratioP2;P2;SDS_P1;SDS_P2;PMS_P1;PMS_P2;Temp;Humidity;BMP_temperature;BMP_pressure;BME280_temperature;BME280_humidity;BME280_pressure;Samples;Min_cycle;Max_cycle;Signal;HPM_P1;HPM_P2
2023/04/26 00:01:56;;;;;;;14.33;13.03;;;7.30;99.90;;;;;;5046488;28;20214;-80
2023/04/26 00:04:23;;;;;;;15.67;14.37;;;7.30;99.90;;;;;;5065175;28;20252;-78
2023/04/26 00:06:50;;;;;;;16.80;15.30;;;7.30;99.90;;;;;;5053465;28;20232;-79
2023/04/26 00:09:18;;;;;;;15.60;14.30;;;7.30;99.90;;;;;;5046716;28;20230;-79
2023/04/26 00:11:45;;;;;;;15.27;14.07;;;7.30;99.90;;;;;;5065443;28;20219;-80
2023/04/26 00:14:11;;;;;;;14.50;13.30;;;7.30;99.90;;;;;;5066064;28;20225;-79
2023/04/26 00:16:38;;;;;;;15.60;14.30;;;7.30;99.90;;;;;;5046746;28;20636;-79
2023/04/26 00:19:09;;;;;;;15.53;14.23;;;7.30;99.90;;;;;;5046191;28;20203;-78
2023/04/26 00:21:36;;;;;;;16.00;14.17;;;7.20;99.90;;;;;;5054861;28;20213;-80
2023/04/26 00:24:04;;;;;;;14.63;13.40;;;7.20;99.90;;;;;;5063952;28;20285;-80
2023/04/26 00:26:33;;;;;;;14.70;13.50;;;7.20;99.90;;;;;;5045555;28;20230;-79
2023/04/26 00:29:00;;;;;;;15.17;13.83;;;7.10;99.90;;;;;;5046052;28;20203;-79
2023/04/26 00:31:26;;;;;;;15.03;13.83;;;7.00;99.90;;;;;;5045580;28;20217;-80
2023/04/26 00:33:53;;;;;;;10.70;9.60;;;6.90;99.90;;;;;;5045332;28;20219;-79
2023/04/26 00:36:22;;;;;;;10.77;9.13;;;6.90;99.90;;;;;;5063675;28;20232;-79
2023/04/26 00:38:48;;;;;;;10.47;9.03;;;6.80;99.90;;;;;;5046071;28;20206;-80
2023/04/26 00:41:15;;;;;;;11.10;10.10;;;6.70;99.90;;;;;;5045437;28;20191;-79
2023/04/26 00:43:42;;;;;;;15.87;14.37;;;6.70;99.90;;;;;;5063362;28;20749;-79
2023/04/26 00:46:10;;;;;;;16.33;15.03;;;6.60;99.90;;;;;;5036929;28;20660;-79
2023/04/26 00:48:37;;;;;;;17.87;16.33;;;6.60;99.90;;;;;;5064027;28;20229;-80
2023/04/26 00:51:05;;;;;;;14.93;13.73;;;6.50;99.90;;;;;;5045902;28;20206;-80
2023/04/26 00:53:34;;;;;;;17.63;16.13;;;6.50;99.90;;;;;;5045600;28;20229;-80
2023/04/26 00:56:02;;;;;;;12.83;11.73;;;6.40;99.90;;;;;;5045618;28;20225;-79
2023/04/26 00:58:29;;;;;;;11.97;10.87;;;6.40;99.90;;;;;;5037152;28;20204;-79
2023/04/26 01:00:57;;;;;;;12.27;11.07;;;6.30;99.90;;;;;;5040591;28;20225;-80
2023/04/26 01:03:24;;;;;;;17.23;15.73;;;6.30;99.90;;;;;;5041842;28;20209;-79
2023/04/26 01:05:51;;;;;;;16.93;15.37;;;6.30;99.90;;;;;;5037003;28;20206;-79
2023/04/26 01:08:19;;;;;;;14.70;13.40;;;6.30;99.90;;;;;;5045654;28;20204;-79
2023/04/26 01:10:48;;;;;;;11.60;10.17;;;6.20;99.90;;;;;;5045837;28;20284;-78
2023/04/26 01:13:16;;;;;;;14.00;12.60;;;6.20;99.90;;;;;;5063295;28;20221;-79
2023/04/26 01:15:45;;;;;;;14.10;12.27;;;6.10;99.90;;;;;;5063330;28;20674;-80
2023/04/26 01:18:12;;;;;;;10.60;9.50;;;6.10;99.90;;;;;;5045625;28;20269;-80
2023/04/26 01:20:40;;;;;;;15.27;13.70;;;6.00;99.90;;;;;;5045018;28;20213;-79
2023/04/26 01:23:08;;;;;;;10.87;8.70;;;6.00;99.90;;;;;;5063078;28;20244;-79
2023/04/26 01:25:36;;;;;;;9.27;8.27;;;5.90;99.90;;;;;;5044363;28;20200;-80
2023/04/26 01:28:03;;;;;;;9.80;8.80;;;5.80;99.90;;;;;;5044954;28;20221;-78
2023/04/26 01:30:30;;;;;;;10.73;9.13;;;5.80;99.90;;;;;;5063081;28;20286;-80
2023/04/26 01:32:57;;;;;;;14.17;12.63;;;5.80;99.90;;;;;;5063197;28;20235;-79
2023/04/26 01:35:25;;;;;;;13.03;11.73;;;5.80;99.90;;;;;;5054300;28;20205;-79
2023/04/26 01:37:52;;;;;;;16.97;15.57;;;5.90;99.90;;;;;;5032880;28;20213;-79
2023/04/26 01:40:20;;;;;;;16.83;15.43;;;5.80;99.90;;;;;;5040405;28;20228;-79
2023/04/26 01:42:47;;;;;;;17.07;15.43;;;5.90;99.90;;;;;;5044385;28;20223;-80
2023/04/26 01:45:14;;;;;;;17.73;16.10;;;5.90;99.90;;;;;;5063260;28;20227;-79
2023/04/26 01:47:59;;;;;;;16.97;15.47;;;5.80;99.90;;;;;;5055506;28;20250;-80
2023/04/26 01:50:26;;;;;;;16.73;15.33;;;5.90;99.90;;;;;;5045433;28;20208;-79
2023/04/26 01:52:53;;;;;;;17.47;15.97;;;6.00;99.90;;;;;;5036577;28;20631;-80
2023/04/26 01:55:21;;;;;;;16.80;15.37;;;6.00;99.90;;;;;;5076310;28;20273;-80
2023/04/26 01:57:48;;;;;;;8.90;7.57;;;6.00;99.90;;;;;;5035936;28;20228;-80
2023/04/26 02:00:15;;;;;;;16.10;14.70;;;6.00;99.90;;;;;;5044525;28;20556;-79
2023/04/26 02:02:42;;;;;;;12.93;9.80;;;6.10;99.90;;;;;;5062434;28;20224;-79
2023/04/26 02:05:10;;;;;;;12.93;11.57;;;6.20;99.90;;;;;;5057032;28;20554;-80
2023/04/26 02:07:37;;;;;;;13.77;12.47;;;6.10;99.90;;;;;;5042139;28;20662;-79
2023/04/26 02:10:04;;;;;;;12.70;9.83;;;6.20;99.90;;;;;;5044055;28;20263;-79
2023/04/26 02:12:33;;;;;;;13.20;9.80;;;6.20;99.90;;;;;;5045286;28;20243;-79
2023/04/26 02:14:59;;;;;;;10.37;8.40;;;6.10;99.90;;;;;;5044393;28;20195;-80
2023/04/26 02:17:28;;;;;;;11.03;8.33;;;6.10;99.90;;;;;;5044724;28;20228;-79
2023/04/26 02:19:55;;;;;;;11.37;9.87;;;6.10;99.90;;;;;;5044662;28;20654;-78
2023/04/26 02:22:24;;;;;;;10.97;9.73;;;6.00;99.90;;;;;;5045354;28;20201;-79
2023/04/26 02:24:51;;;;;;;18.50;16.90;;;6.00;99.90;;;;;;5044185;28;20272;-80
2023/04/26 02:27:18;;;;;;;13.33;11.93;;;5.90;99.90;;;;;;5044566;28;20288;-79
2023/04/26 02:29:46;;;;;;;16.80;15.00;;;5.90;99.90;;;;;;5044402;28;20603;-80
2023/04/26 02:32:13;;;;;;;14.80;13.50;;;5.80;99.90;;;;;;5042966;28;20204;-80
2023/04/26 02:34:40;;;;;;;16.70;15.07;;;5.70;99.90;;;;;;5044025;28;20696;-79
2023/04/26 02:37:07;;;;;;;12.10;10.47;;;5.70;99.90;;;;;;5043402;28;20228;-79
2023/04/26 02:39:34;;;;;;;17.00;13.60;;;5.60;99.90;;;;;;5053387;28;20215;-80
2023/04/26 02:42:01;;;;;;;11.43;9.37;;;5.50;99.90;;;;;;5042935;28;20209;-80
2023/04/26 02:44:29;;;;;;;11.43;10.30;;;5.50;99.90;;;;;;5045949;28;20202;-80
2023/04/26 02:46:58;;;;;;;13.10;10.90;;;5.40;99.90;;;;;;5033030;28;20280;-81
2023/04/26 02:49:25;;;;;;;11.00;9.83;;;5.30;99.90;;;;;;5024846;28;20565;-80
2023/04/26 02:51:51;;;;;;;17.03;15.70;;;5.30;99.90;;;;;;5038200;28;20196;-81
2023/04/26 02:54:18;;;;;;;16.03;14.63;;;5.20;99.90;;;;;;5049234;28;20215;-82
2023/04/26 02:56:45;;;;;;;15.33;13.93;;;5.20;99.90;;;;;;5042814;28;20216;-80
2023/04/26 02:59:12;;;;;;;17.37;16.00;;;5.10;99.90;;;;;;5043585;28;20226;-80
2023/04/26 03:01:39;;;;;;;16.90;15.50;;;5.10;99.90;;;;;;5035060;28;20199;-80
2023/04/26 03:04:07;;;;;;;15.13;13.77;;;5.00;99.90;;;;;;5045826;28;20183;-80
2023/04/26 03:06:35;;;;;;;16.13;14.83;;;5.00;99.90;;;;;;5034612;28;20246;-79
2023/04/26 03:09:04;;;;;;;19.10;17.40;;;5.00;99.90;;;;;;5038060;28;20609;-80
2023/04/26 03:11:31;;;;;;;17.87;15.97;;;5.00;99.90;;;;;;5057071;28;20210;-80
2023/04/26 03:13:58;;;;;;;17.40;15.90;;;5.10;99.90;;;;;;5031261;28;20207;-80
2023/04/26 03:16:27;;;;;;;20.10;18.40;;;5.10;99.90;;;;;;5039319;28;20550;-79
2023/04/26 03:18:54;;;;;;;19.00;17.20;;;5.10;99.90;;;;;;5040377;28;20205;-80
2023/04/26 03:21:22;;;;;;;17.63;16.33;;;5.10;99.90;;;;;;5039751;28;20223;-85
2023/04/26 03:23:50;;;;;;;18.50;16.97;;;5.10;99.90;;;;;;5055864;28;20195;-82
2023/04/26 03:26:16;;;;;;;19.07;17.37;;;5.10;99.90;;;;;;5040915;28;20216;-82
2023/04/26 03:28:43;;;;;;;18.13;16.63;;;5.00;99.90;;;;;;5040716;28;20206;-83
2023/04/26 03:31:10;;;;;;;18.70;17.00;;;5.00;99.90;;;;;;5041509;28;20195;-84
2023/04/26 03:33:38;;;;;;;19.43;17.70;;;5.00;99.90;;;;;;5040649;28;20215;-82
2023/04/26 03:36:05;;;;;;;19.37;17.57;;;5.00;99.90;;;;;;5040450;28;20254;-81
2023/04/26 03:38:33;;;;;;;18.93;17.33;;;5.00;99.90;;;;;;5035176;28;20266;-81
2023/04/26 03:41:00;;;;;;;18.47;16.77;;;5.00;99.90;;;;;;5034904;28;20579;-81
2023/04/26 03:43:27;;;;;;;19.47;17.77;;;4.90;99.90;;;;;;5041641;28;20659;-80
2023/04/26 03:45:54;;;;;;;19.43;17.70;;;4.80;99.90;;;;;;5043674;28;20223;-80
2023/04/26 03:48:21;;;;;;;19.57;17.87;;;4.80;99.90;;;;;;5044219;28;20222;-81
2023/04/26 03:50:48;;;;;;;19.57;17.97;;;4.80;99.90;;;;;;5043677;28;20777;-81
2023/04/26 03:53:15;;;;;;;20.40;18.50;;;4.70;99.90;;;;;;5045901;28;20215;-80
2023/04/26 03:55:45;;;;;;;19.80;18.10;;;4.70;99.90;;;;;;5066279;28;20204;-80
2023/04/26 03:58:13;;;;;;;20.13;18.53;;;4.70;99.90;;;;;;5062351;28;20201;-79
2023/04/26 04:00:41;;;;;;;19.67;17.80;;;4.70;99.90;;;;;;5042128;28;20231;-82
2023/04/26 04:03:08;;;;;;;19.30;17.60;;;4.70;99.90;;;;;;5045234;28;20790;-79
2023/04/26 04:05:35;;;;;;;19.97;18.27;;;4.60;99.90;;;;;;5060782;28;20203;-79
2023/04/26 04:08:01;;;;;;;18.73;17.23;;;4.60;99.90;;;;;;5028656;28;20196;-80
2023/04/26 04:10:29;;;;;;;20.83;19.03;;;4.60;99.90;;;;;;5030026;28;20206;-79
2023/04/26 04:12:58;;;;;;;21.30;19.33;;;4.60;99.90;;;;;;5023289;28;20286;-80
2023/04/26 04:15:25;;;;;;;19.87;18.17;;;4.70;99.90;;;;;;5026299;28;20207;-80
2023/04/26 04:17:53;;;;;;;21.10;19.30;;;4.70;99.90;;;;;;5028152;28;20265;-80
2023/04/26 04:20:21;;;;;;;20.90;18.80;;;4.70;99.90;;;;;;5021343;28;20200;-79
2023/04/26 04:22:48;;;;;;;19.77;18.07;;;4.80;99.90;;;;;;5027228;28;20211;-83
2023/04/26 04:25:15;;;;;;;20.57;18.87;;;4.80;99.90;;;;;;5033798;28;20263;-79
2023/04/26 04:27:42;;;;;;;18.83;17.33;;;4.70;99.90;;;;;;5038334;28;20314;-80
2023/04/26 04:30:13;;;;;;;19.70;18.17;;;4.70;99.90;;;;;;5039241;28;20191;-79
2023/04/26 04:32:43;;;;;;;21.20;19.30;;;4.70;99.90;;;;;;5041816;28;20270;-78
2023/04/26 04:35:11;;;;;;;20.27;18.67;;;4.70;99.90;;;;;;5047362;28;20653;-80
2023/04/26 04:37:37;;;;;;;21.30;19.43;;;4.70;99.90;;;;;;5056717;28;20702;-84
2023/04/26 04:40:08;;;;;;;20.57;18.87;;;4.80;99.90;;;;;;5057403;28;20195;-82
2023/04/26 04:42:35;;;;;;;20.17;18.27;;;4.70;99.90;;;;;;5041636;28;20203;-81
2023/04/26 04:45:06;;;;;;;19.87;17.93;;;4.80;99.90;;;;;;5028954;28;20228;-81
2023/04/26 04:47:38;;;;;;;19.57;17.97;;;4.80;99.90;;;;;;5032835;28;20245;-80
2023/04/26 04:50:07;;;;;;;18.53;17.20;;;4.90;99.90;;;;;;5039832;28;20300;-79
2023/04/26 04:52:34;;;;;;;19.87;18.27;;;5.00;99.90;;;;;;5038609;28;20205;-80
2023/04/26 04:55:01;;;;;;;20.97;19.30;;;5.00;99.90;;;;;;5039087;28;20676;-77
2023/04/26 04:57:29;;;;;;;21.87;19.90;;;5.20;99.90;;;;;;5070351;28;20212;-78
2023/04/26 04:59:56;;;;;;;21.33;19.53;;;5.20;99.90;;;;;;5042446;28;20206;-77
2023/04/26 05:02:24;;;;;;;21.20;19.40;;;5.30;99.90;;;;;;5031172;28;20225;-79
2023/04/26 05:04:52;;;;;;;21.03;19.13;;;5.40;99.90;;;;;;5041576;28;20223;-79
2023/04/26 05:07:19;;;;;;;20.73;19.07;;;5.40;99.90;;;;;;5042651;28;20243;-80
2023/04/26 05:09:46;;;;;;;20.93;19.13;;;5.50;99.90;;;;;;5045044;28;20227;-78
2023/04/26 05:12:13;;;;;;;20.03;18.43;;;5.50;99.90;;;;;;5035903;28;20197;-78
2023/04/26 05:14:41;;;;;;;19.57;17.97;;;5.60;99.90;;;;;;5046448;28;20251;-77
2023/04/26 05:17:07;;;;;;;19.60;18.13;;;5.60;99.90;;;;;;5051053;28;20213;-78
2023/04/26 05:19:35;;;;;;;19.53;17.87;;;5.60;99.90;;;;;;5051007;28;20226;-77
2023/04/26 05:22:04;;;;;;;19.50;17.80;;;5.60;99.90;;;;;;5050527;28;20200;-78
2023/04/26 05:24:31;;;;;;;19.77;18.07;;;5.70;99.90;;;;;;5051816;28;20188;-78
2023/04/26 05:26:59;;;;;;;20.60;19.03;;;5.80;99.90;;;;;;5051186;28;20226;-77
2023/04/26 05:29:52;;;;;;;18.83;17.33;;;5.80;99.90;;;;;;5067680;28;20231;-78
2023/04/26 05:32:36;;;;;;;19.87;18.10;;;5.90;99.90;;;;;;5036347;28;20205;-77
2023/04/26 05:35:24;;;;;;;18.90;17.50;;;6.00;99.90;;;;;;5045511;28;20226;-78
2023/04/26 05:37:52;;;;;;;20.93;19.20;;;6.00;99.90;;;;;;5051910;28;20247;-77
2023/04/26 05:40:21;;;;;;;19.63;18.07;;;6.10;99.90;;;;;;5051079;28;20218;-78
2023/04/26 05:42:50;;;;;;;19.90;18.30;;;6.40;99.90;;;;;;5051177;28;20289;-78
2023/04/26 05:45:17;;;;;;;18.70;17.00;;;6.60;99.90;;;;;;5043020;28;20193;-77
2023/04/26 05:47:46;;;;;;;20.13;18.53;;;6.80;99.90;;;;;;5050309;28;20225;-77
2023/04/26 05:50:14;;;;;;;20.60;18.90;;;6.90;99.90;;;;;;5050823;28;20199;-77
2023/04/26 05:52:40;;;;;;;19.03;17.53;;;7.00;99.90;;;;;;5063896;28;20205;-77
2023/04/26 05:55:10;;;;;;;19.57;17.87;;;7.20;99.90;;;;;;5050962;28;20726;-77
2023/04/26 05:57:37;;;;;;;18.43;16.93;;;7.20;99.90;;;;;;5051532;28;20215;-78
2023/04/26 06:00:05;;;;;;;18.10;16.70;;;7.30;99.90;;;;;;5052758;28;20199;-78
2023/04/26 06:02:40;;;;;;;19.17;17.20;;;7.40;99.90;;;;;;5069063;28;20208;-78
2023/04/26 06:05:12;;;;;;;19.27;17.77;;;7.50;99.90;;;;;;5040560;28;20197;-78
2023/04/26 06:07:39;;;;;;;16.47;15.17;;;7.50;99.90;;;;;;5044761;28;20301;-77
2023/04/26 06:10:07;;;;;;;12.53;9.80;;;7.50;99.90;;;;;;5067420;28;20221;-78
2023/04/26 06:12:35;;;;;;;18.77;17.07;;;7.50;99.90;;;;;;5043986;28;20207;-77
2023/04/26 06:15:02;;;;;;;17.80;16.23;;;7.50;99.90;;;;;;5051408;28;20233;-77
2023/04/26 06:17:30;;;;;;;19.77;18.07;;;7.60;99.90;;;;;;5052411;28;20282;-77
2023/04/26 06:19:57;;;;;;;16.80;15.30;;;7.70;99.90;;;;;;5050156;28;21001;-78
2023/04/26 06:22:24;;;;;;;17.70;16.17;;;7.80;99.90;;;;;;5051246;28;20207;-77
2023/04/26 06:24:51;;;;;;;18.53;16.83;;;7.90;99.90;;;;;;5052040;28;20192;-77
2023/04/26 06:27:18;;;;;;;16.73;14.87;;;8.00;99.90;;;;;;5038687;28;20280;-76
2023/04/26 06:29:49;;;;;;;13.07;11.83;;;8.10;99.90;;;;;;5048119;28;20199;-77
2023/04/26 06:32:17;;;;;;;14.93;13.63;;;8.30;99.90;;;;;;5050688;28;20214;-77
2023/04/26 06:34:44;;;;;;;12.90;11.60;;;8.40;99.90;;;;;;5050805;28;20215;-78
2023/04/26 06:37:11;;;;;;;13.23;10.23;;;8.60;99.90;;;;;;5050255;28;20226;-78
2023/04/26 06:39:41;;;;;;;11.53;10.53;;;8.60;99.90;;;;;;5050597;28;20266;-77
2023/04/26 06:42:08;;;;;;;11.93;10.73;;;8.80;99.90;;;;;;5044908;28;20202;-77
2023/04/26 06:44:55;;;;;;;12.93;11.83;;;9.00;99.90;;;;;;5050384;28;20191;-81
2023/04/26 06:47:22;;;;;;;12.27;10.97;;;9.00;99.90;;;;;;5072824;28;20650;-79
2023/04/26 06:49:49;;;;;;;10.77;8.43;;;9.00;99.90;;;;;;5056748;28;20293;-77
2023/04/26 06:52:15;;;;;;;9.60;7.13;;;9.10;99.90;;;;;;5074104;28;20644;-77
2023/04/26 06:54:42;;;;;;;10.47;7.43;;;9.20;99.90;;;;;;5043386;28;20230;-77
2023/04/26 06:57:09;;;;;;;11.67;7.97;;;9.10;99.90;;;;;;5048311;28;20211;-77
2023/04/26 06:59:36;;;;;;;8.33;7.37;;;9.10;99.90;;;;;;5066610;28;20203;-79
2023/04/26 07:02:04;;;;;;;9.93;8.90;;;9.20;99.90;;;;;;5050339;28;20199;-77
2023/04/26 07:04:31;;;;;;;9.97;6.77;;;9.40;99.90;;;;;;5052188;28;20192;-78
2023/04/26 07:06:58;;;;;;;12.57;7.73;;;9.60;99.90;;;;;;5067038;28;20215;-77
2023/04/26 07:09:25;;;;;;;10.27;7.73;;;9.70;99.90;;;;;;5063304;28;20206;-78
2023/04/26 07:11:51;;;;;;;11.20;7.77;;;9.80;99.90;;;;;;5039045;28;20238;-77
2023/04/26 07:14:18;;;;;;;10.97;7.73;;;10.00;99.90;;;;;;5036401;28;20247;-77
2023/04/26 07:16:45;;;;;;;10.33;7.90;;;10.10;99.90;;;;;;5058303;28;20225;-79
2023/04/26 07:19:13;;;;;;;10.20;9.20;;;10.10;99.90;;;;;;5048535;28;20288;-78
2023/04/26 07:21:40;;;;;;;13.67;6.80;;;10.40;99.90;;;;;;5048198;28;20258;-77
2023/04/26 07:24:07;;;;;;;9.50;6.80;;;10.80;99.90;;;;;;5034779;28;20217;-78
2023/04/26 07:26:35;;;;;;;11.73;9.50;;;11.30;99.90;;;;;;5051196;28;20226;-80
2023/04/26 07:29:02;;;;;;;12.07;8.97;;;11.40;99.90;;;;;;5031093;28;20217;-78
2023/04/26 07:31:30;;;;;;;13.53;7.90;;;11.40;99.90;;;;;;5046613;28;20667;-77
2023/04/26 07:33:57;;;;;;;8.73;7.30;;;11.40;99.90;;;;;;5039592;28;20211;-77
2023/04/26 07:36:26;;;;;;;8.40;7.07;;;11.50;99.90;;;;;;5053902;28;20242;-77
2023/04/26 07:38:53;;;;;;;7.87;6.90;;;11.90;99.90;;;;;;5061989;28;20206;-77
2023/04/26 07:41:20;;;;;;;10.33;6.97;;;12.60;99.90;;;;;;5048128;28;20590;-76
2023/04/26 07:43:47;;;;;;;10.07;6.90;;;13.20;99.90;;;;;;5050444;28;20209;-78
2023/04/26 07:46:14;;;;;;;11.53;6.83;;;13.60;99.90;;;;;;5056058;28;20213;-78
2023/04/26 07:48:40;;;;;;;10.43;6.67;;;13.90;99.90;;;;;;5056194;28;20208;-77
2023/04/26 07:51:08;;;;;;;9.63;6.60;;;14.60;99.90;;;;;;5057597;28;20198;-81
2023/04/26 07:53:36;;;;;;;10.73;7.37;;;15.00;99.90;;;;;;5030061;28;20297;-78
2023/04/26 07:56:05;;;;;;;10.20;7.10;;;14.90;99.90;;;;;;5041226;28;20214;-78
2023/04/26 07:58:32;;;;;;;8.77;6.60;;;14.40;99.90;;;;;;5024333;28;20257;-79
2023/04/26 08:00:59;;;;;;;8.93;6.13;;;13.90;99.90;;;;;;5025433;28;20266;-78
2023/04/26 08:03:27;;;;;;;9.17;6.40;;;14.30;99.90;;;;;;5040926;28;20585;-77
2023/04/26 08:05:54;;;;;;;10.77;6.67;;;14.70;99.90;;;;;;5025532;28;20224;-77
2023/04/26 08:08:21;;;;;;;9.90;7.30;;;15.00;99.90;;;;;;5036462;28;20745;-76
2023/04/26 08:10:49;;;;;;;10.63;6.83;;;14.80;99.90;;;;;;5050646;28;20207;-77
2023/04/26 08:13:16;;;;;;;10.70;6.60;;;14.30;99.90;;;;;;5042466;28;20197;-77
2023/04/26 08:15:43;;;;;;;8.00;6.40;;;14.20;99.90;;;;;;5043972;28;20223;-77
2023/04/26 08:18:10;;;;;;;11.87;6.87;;;14.40;99.90;;;;;;5046163;28;20200;-77
2023/04/26 08:20:36;;;;;;;8.03;6.40;;;14.40;99.90;;;;;;5050346;28;20192;-76
2023/04/26 08:23:03;;;;;;;7.57;6.00;;;14.40;99.90;;;;;;5049078;28;20283;-76
2023/04/26 08:25:33;;;;;;;9.77;6.30;;;14.80;99.90;;;;;;5047217;28;20198;-76
2023/04/26 08:28:01;;;;;;;7.70;5.37;;;15.00;99.90;;;;;;5034381;28;20265;-76
2023/04/26 08:30:28;;;;;;;8.03;5.33;;;15.40;99.90;;;;;;5018072;28;20204;-77
2023/04/26 08:32:55;;;;;;;8.00;5.90;;;15.70;99.90;;;;;;5044185;28;20202;-77
2023/04/26 08:35:22;;;;;;;8.20;6.40;;;15.50;99.90;;;;;;5024856;28;20215;-78
2023/04/26 08:37:49;;;;;;;8.30;5.60;;;15.30;99.90;;;;;;5031207;28;20306;-78
2023/04/26 08:40:22;;;;;;;11.20;6.20;;;15.40;99.90;;;;;;5041778;28;20200;-78
2023/04/26 08:42:49;;;;;;;9.47;5.53;;;15.10;99.90;;;;;;5039527;28;20199;-81
2023/04/26 08:45:18;;;;;;;10.80;5.90;;;14.50;99.90;;;;;;5045749;28;20277;-77
2023/04/26 08:47:47;;;;;;;8.10;5.17;;;14.50;99.90;;;;;;5048542;28;20231;-77
2023/04/26 08:50:16;;;;;;;8.93;5.50;;;14.40;99.90;;;;;;5025504;28;20213;-78
2023/04/26 08:52:43;;;;;;;7.47;4.83;;;14.00;99.90;;;;;;5045500;28;20199;-79
2023/04/26 08:55:11;;;;;;;9.73;5.30;;;14.70;99.90;;;;;;5042687;28;20222;-78
2023/04/26 08:57:39;;;;;;;11.13;4.67;;;14.80;99.90;;;;;;5055131;28;20251;-78
2023/04/26 09:00:11;;;;;;;9.60;4.80;;;14.90;99.90;;;;;;5059148;28;20255;-78
2023/04/26 09:02:41;;;;;;;10.13;5.50;;;15.40;99.90;;;;;;5040684;28;20205;-78
2023/04/26 09:05:09;;;;;;;9.03;5.80;;;15.70;99.90;;;;;;5059011;28;20544;-79
2023/04/26 09:07:40;;;;;;;6.77;5.03;;;16.00;99.90;;;;;;5044414;28;20650;-79
2023/04/26 09:10:08;;;;;;;6.47;5.37;;;16.50;99.90;;;;;;5046867;28;20213;-79
2023/04/26 09:12:35;;;;;;;9.33;5.93;;;16.50;99.90;;;;;;5024199;28;20204;-79
2023/04/26 09:15:03;;;;;;;7.87;5.40;;;16.30;99.90;;;;;;5053407;28;20257;-78
2023/04/26 09:17:31;;;;;;;7.97;5.47;;;16.40;99.90;;;;;;5048225;28;20224;-80
2023/04/26 09:20:03;;;;;;;8.77;5.40;;;16.00;99.90;;;;;;5027658;28;20216;-83
2023/04/26 09:22:32;;;;;;;7.57;4.90;;;16.00;99.90;;;;;;5044054;28;20248;-82
2023/04/26 09:24:59;;;;;;;7.07;4.50;;;16.20;99.90;;;;;;5037829;28;20187;-83
2023/04/26 09:27:34;;;;;;;11.20;5.20;;;16.60;99.90;;;;;;5047761;28;20224;-78
2023/04/26 09:30:05;;;;;;;6.67;5.00;;;16.30;99.90;;;;;;5019786;28;20287;-80
2023/04/26 09:32:44;;;;;;;7.10;4.93;;;16.00;99.90;;;;;;5036570;28;20196;-79
2023/04/26 09:35:22;;;;;;;7.30;5.27;;;15.60;99.90;;;;;;5039019;28;20448;-78
2023/04/26 09:37:53;;;;;;;9.97;5.23;;;15.70;99.90;;;;;;5045711;28;20245;-82
2023/04/26 09:40:21;;;;;;;5.67;4.53;;;15.40;99.90;;;;;;5048687;28;20200;-80
2023/04/26 09:43:00;;;;;;;8.63;4.93;;;15.20;99.90;;;;;;5039013;28;20671;-78
2023/04/26 09:45:28;;;;;;;6.30;5.20;;;15.10;99.90;;;;;;5039639;28;20202;-79
2023/04/26 09:47:56;;;;;;;5.90;4.30;;;15.00;99.90;;;;;;5050197;28;20219;-79
2023/04/26 09:50:29;;;;;;;6.43;4.43;;;15.00;99.90;;;;;;5055512;28;20199;-79
2023/04/26 09:52:56;;;;;;;7.80;4.10;;;15.50;99.90;;;;;;5029149;28;20202;-78
2023/04/26 09:55:28;;;;;;;6.67;4.70;;;15.70;99.90;;;;;;5032452;28;20208;-77
2023/04/26 09:57:55;;;;;;;7.07;4.10;;;15.40;99.90;;;;;;5021226;28;20220;-78
2023/04/26 10:00:24;;;;;;;5.40;4.10;;;15.30;99.90;;;;;;5057602;28;20196;-80
2023/04/26 10:02:52;;;;;;;4.60;3.63;;;15.60;99.90;;;;;;5037313;28;20196;-79
2023/04/26 10:05:19;;;;;;;6.53;4.23;;;15.90;99.90;;;;;;5035490;28;20199;-79
2023/04/26 10:07:48;;;;;;;6.57;3.73;;;15.90;99.90;;;;;;5057202;28;20225;-79
2023/04/26 10:10:16;;;;;;;5.27;3.77;;;16.30;99.90;;;;;;5040733;28;20690;-77
2023/04/26 10:12:44;;;;;;;7.20;4.27;;;16.50;99.90;;;;;;5042125;28;20226;-77
2023/04/26 10:15:11;;;;;;;7.33;3.90;;;16.30;99.90;;;;;;5017690;28;20220;-77
2023/04/26 10:17:38;;;;;;;7.73;3.87;;;16.20;99.90;;;;;;5047926;28;20220;-77
2023/04/26 10:20:10;;;;;;;5.20;3.43;;;16.20;99.90;;;;;;5049557;28;20203;-77
2023/04/26 10:22:50;;;;;;;4.97;3.60;;;16.30;99.90;;;;;;5045520;28;20204;-77
2023/04/26 10:25:18;;;;;;;5.20;3.63;;;16.30;99.90;;;;;;5049778;28;20272;-77
2023/04/26 10:27:52;;;;;;;5.47;3.53;;;16.20;99.90;;;;;;5021018;28;20227;-77
2023/04/26 10:30:25;;;;;;;6.43;3.93;;;16.20;99.90;;;;;;5035196;28;20200;-77
2023/04/26 10:33:16;;;;;;;9.17;3.33;;;16.10;99.90;;;;;;5039260;28;20191;-77
2023/04/26 10:36:06;;;;;;;4.73;3.90;;;15.90;99.90;;;;;;5032734;28;20212;-76
2023/04/26 10:38:34;;;;;;;6.07;3.43;;;16.10;99.90;;;;;;5041500;28;20192;-76
2023/04/26 10:41:43;;;;;;;5.23;3.60;;;16.60;99.90;;;;;;5023967;28;20663;-76
2023/04/26 10:44:40;;;;;;;8.60;3.60;;;16.70;99.90;;;;;;5048563;28;20192;-77
2023/04/26 10:47:09;;;;;;;5.77;3.73;;;16.60;99.90;;;;;;5039187;28;20219;-79
2023/04/26 10:49:47;;;;;;;4.23;3.40;;;16.80;99.90;;;;;;5039201;28;20262;-79
2023/04/26 10:52:15;;;;;;;4.23;3.43;;;17.00;99.90;;;;;;5040280;28;20202;-78
2023/04/26 10:54:49;;;;;;;5.07;3.57;;;17.20;99.90;;;;;;5047013;28;20208;-80
2023/04/26 10:57:16;;;;;;;7.13;3.77;;;17.10;99.90;;;;;;5059563;28;20223;-80
2023/04/26 11:00:36;;;;;;;5.70;3.43;;;16.60;99.90;;;;;;5028109;28;20677;-78
2023/04/26 11:03:07;;;;;;;3.43;3.13;;;16.60;99.90;;;;;;5040646;28;20279;-80
2023/04/26 11:05:36;;;;;;;6.53;3.40;;;16.60;99.90;;;;;;5052035;28;20196;-80
2023/04/26 11:08:08;;;;;;;6.57;3.87;;;16.50;99.90;;;;;;5045683;28;20243;-81
2023/04/26 11:10:37;;;;;;;4.67;3.67;;;16.00;99.90;;;;;;5045200;28;20219;-82
2023/04/26 11:13:04;;;;;;;4.17;3.30;;;15.80;99.90;;;;;;5041998;28;20575;-81
2023/04/26 11:15:32;;;;;;;4.77;3.40;;;15.90;99.90;;;;;;5050447;28;20695;-80
2023/04/26 11:18:01;;;;;;;6.03;3.63;;;15.90;99.90;;;;;;5048605;28;20220;-84
2023/04/26 11:20:31;;;;;;;3.73;3.30;;;15.50;99.90;;;;;;5032592;28;20214;-82
2023/04/26 11:22:58;;;;;;;5.63;3.20;;;15.50;99.90;;;;;;5038582;28;20235;-80
2023/04/26 11:25:26;;;;;;;4.67;2.80;;;15.70;99.90;;;;;;5027899;28;20624;-80
2023/04/26 11:28:01;;;;;;;5.37;3.40;;;15.90;99.90;;;;;;5020898;28;20255;-81
2023/04/26 11:30:31;;;;;;;6.47;3.33;;;16.10;99.90;;;;;;5025837;28;20254;-82
2023/04/26 11:32:58;;;;;;;4.10;3.30;;;16.10;99.90;;;;;;5047246;28;20204;-81
2023/04/26 11:35:26;;;;;;;5.17;3.50;;;16.10;99.90;;;;;;5055130;28;20213;-79
2023/04/26 11:37:54;;;;;;;4.53;3.20;;;16.10;99.90;;;;;;5031104;28;20309;-78
2023/04/26 11:40:21;;;;;;;5.43;3.37;;;15.80;99.90;;;;;;5048390;28;20189;-79
2023/04/26 11:42:48;;;;;;;3.70;3.13;;;15.70;99.90;;;;;;5029039;28;20250;-80
2023/04/26 11:45:18;;;;;;;5.83;3.40;;;15.80;99.90;;;;;;5032894;28;20200;-80
2023/04/26 11:47:46;;;;;;;4.57;3.43;;;15.60;99.90;;;;;;5047282;28;20214;-78
2023/04/26 11:50:13;;;;;;;4.57;3.40;;;15.40;99.90;;;;;;5049749;28;20226;-80
2023/04/26 11:52:41;;;;;;;6.23;3.20;;;15.60;99.90;;;;;;5047189;28;20557;-79
2023/04/26 11:55:10;;;;;;;3.70;2.90;;;15.40;99.90;;;;;;5046049;28;20203;-81
2023/04/26 11:57:37;;;;;;;3.17;2.90;;;15.70;99.90;;;;;;5043885;28;20226;-81
2023/04/26 12:00:10;;;;;;;5.93;2.83;;;15.70;99.90;;;;;;5043383;28;20230;-80
2023/04/26 12:02:37;;;;;;;4.93;3.03;;;16.10;99.90;;;;;;5059312;28;20195;-81
2023/04/26 12:05:06;;;;;;;4.97;3.50;;;16.20;99.90;;;;;;5049466;28;20779;-81
2023/04/26 12:07:36;;;;;;;6.13;3.73;;;16.20;99.90;;;;;;5049126;28;20265;-81
2023/04/26 12:10:24;;;;;;;4.30;3.00;;;16.10;99.90;;;;;;5031057;28;20240;-80
2023/04/26 12:12:51;;;;;;;3.23;2.73;;;16.30;99.90;;;;;;5058987;28;20199;-79
2023/04/26 12:15:19;;;;;;;4.60;2.83;;;16.60;99.90;;;;;;5041886;28;20573;-79
2023/04/26 12:17:53;;;;;;;4.30;2.80;;;16.30;99.90;;;;;;5033894;28;20223;-81
2023/04/26 12:20:27;;;;;;;4.37;3.90;;;16.20;99.90;;;;;;5024081;28;20198;-81
2023/04/26 12:22:58;;;;;;;5.53;3.70;;;16.00;99.90;;;;;;5029936;28;20668;-82
2023/04/26 12:25:26;;;;;;;4.40;3.80;;;16.00;99.90;;;;;;5042102;28;20196;-82
2023/04/26 12:27:53;;;;;;;4.20;3.80;;;16.10;99.90;;;;;;5026840;28;20239;-78
2023/04/26 12:30:21;;;;;;;6.27;3.97;;;16.30;99.90;;;;;;5048118;28;20262;-80
2023/04/26 12:33:01;;;;;;;5.50;4.90;;;16.10;99.90;;;;;;5057410;28;20210;-81
2023/04/26 12:35:28;;;;;;;5.63;5.13;;;15.80;99.90;;;;;;5054065;28;20230;-81
2023/04/26 12:37:55;;;;;;;6.77;5.10;;;15.70;99.90;;;;;;5049639;28;20226;-81
2023/04/26 12:40:23;;;;;;;5.60;5.10;;;15.70;99.90;;;;;;5021573;28;20207;-80
2023/04/26 12:42:51;;;;;;;5.40;4.97;;;15.60;99.90;;;;;;5046848;28;20202;-80
2023/04/26 12:45:19;;;;;;;4.43;4.10;;;15.70;99.90;;;;;;5046129;28;20199;-80
2023/04/26 12:47:46;;;;;;;4.50;4.10;;;15.70;99.90;;;;;;5022207;28;20250;-80
2023/04/26 12:50:14;;;;;;;4.20;3.73;;;16.00;99.90;;;;;;5049732;28;20277;-82